Time;durP1;ratioP1;P1;durP2;ratioP2;P2;SDS_P1;SDS_P2;PMS_P1;PMS_P2;Temp;Humidity;BMP_temperature;BMP_pressure;BME280_temperature;BME280_humidity;BME280_pressure;Samples;Min_cycle;Max_cycle;Signal;HPM_P1;HPM_P2
2022/08/10 00:29:22;;;;;;;3.03;1.70;;;;;;;19.75;66.23;102548.81;2529743;26;20052;-56
2022/08/10 00:31:50;;;;;;;3.53;1.83;;;;;;;19.85;65.93;102548.72;5076272;28;20051;-53
2022/08/10 00:34:30;;;;;;;3.42;1.77;;;;;;;19.92;65.62;102543.69;5090856;28;20044;-57
2022/08/10 00:36:58;;;;;;;3.33;1.90;;;;;;;19.94;65.45;102544.22;5093758;28;20046;-54
2022/08/10 00:39:27;;;;;;;2.35;1.88;;;;;;;19.89;65.61;102538.72;5093884;28;20081;-56
2022/08/10 00:41:55;;;;;;;5.13;2.10;;;;;;;19.88;65.64;102544.53;5075053;28;20109;-56
2022/08/10 00:44:39;;;;;;;4.20;1.60;;;;;;;19.76;66.17;102542.13;5076782;28;20040;-52
2022/08/10 00:47:07;;;;;;;2.78;1.70;;;;;;;19.71;66.33;102540.25;5093906;28;20505;-55
2022/08/10 00:49:56;;;;;;;6.05;1.73;;;;;;;19.67;66.69;102538.31;5079182;28;20044;-55
2022/08/10 00:52:24;;;;;;;2.30;1.80;;;;;;;19.64;66.92;102536.13;5075767;28;20040;-53
2022/08/10 00:54:52;;;;;;;3.80;1.90;;;;;;;19.58;66.98;102536.16;5076096;28;20052;-52
2022/08/10 00:57:20;;;;;;;2.10;1.45;;;;;;;19.61;67.07;102532.00;5075954;28;20149;-53
2022/08/10 01:00:08;;;;;;;2.85;2.05;;;;;;;19.40;67.86;102531.28;5080401;28;20510;-55
2022/08/10 01:02:36;;;;;;;4.68;2.05;;;;;;;19.37;68.12;102529.13;5095172;28;20104;-52
2022/08/10 01:05:08;;;;;;;3.22;1.77;;;;;;;19.35;68.45;102528.56;5094632;28;20066;-57
2022/08/10 01:07:54;;;;;;;4.65;1.90;;;;;;;19.42;68.03;102531.84;5075495;28;20492;-55
2022/08/10 01:10:40;;;;;;;6.18;1.70;;;;;;;19.44;67.92;102532.38;5093332;28;20039;-59
2022/08/10 01:13:43;;;;;;;3.25;2.05;;;;;;;19.37;68.32;102535.47;5091458;28;20120;-59
2022/08/10 01:16:31;;;;;;;4.63;1.90;;;;;;;19.25;68.78;102525.88;5069436;28;20044;-56
2022/08/10 01:19:11;;;;;;;4.05;1.90;;;;;;;19.29;68.78;102526.94;5092781;28;20048;-55
2022/08/10 01:21:58;;;;;;;2.65;1.80;;;;;;;19.16;69.26;102529.22;5092822;28;20047;-57
2022/08/10 01:24:58;;;;;;;3.22;2.10;;;;;;;19.17;69.23;102527.31;5087823;28;20092;-56
2022/08/10 01:27:47;;;;;;;4.45;2.08;;;;;;;19.24;68.94;102526.97;5066561;28;20053;-56
2022/08/10 01:30:17;;;;;;;3.90;2.10;;;;;;;19.28;68.80;102531.63;5081527;28;20444;-57
2022/08/10 01:33:11;;;;;;;2.90;2.10;;;;;;;19.27;68.93;102523.66;5074640;28;20047;-57
2022/08/10 01:35:59;;;;;;;4.72;2.00;;;;;;;19.18;69.48;102522.59;5090843;28;20044;-56
2022/08/10 01:38:30;;;;;;;3.47;2.08;;;;;;;19.17;69.32;102513.50;5088871;28;20052;-53
2022/08/10 01:41:09;;;;;;;3.47;2.33;;;;;;;19.12;69.67;102510.72;5075154;28;20048;-57
2022/08/10 01:43:43;;;;;;;5.22;2.40;;;;;;;18.96;70.41;102517.47;5058345;28;20048;-56
2022/08/10 01:46:31;;;;;;;2.45;1.90;;;;;;;18.98;70.51;102521.59;5077430;28;20044;-55
2022/08/10 01:49:02;;;;;;;6.47;2.22;;;;;;;19.04;70.17;102525.16;5093213;28;20085;-55
2022/08/10 01:51:41;;;;;;;4.50;2.20;;;;;;;19.09;70.06;102523.19;5074222;28;20405;-53
2022/08/10 01:54:11;;;;;;;3.08;2.22;;;;;;;19.03;70.44;102521.56;5092774;28;20050;-52
2022/08/10 01:56:45;;;;;;;4.90;2.35;;;;;;;19.00;70.51;102522.13;5092768;28;20051;-53
2022/08/10 01:59:28;;;;;;;5.18;2.28;;;;;;;18.92;71.04;102525.47;5073990;28;20040;-53
2022/08/10 02:02:03;;;;;;;4.68;2.35;;;;;;;18.92;70.93;102519.94;5074476;28;20048;-55
2022/08/10 02:04:35;;;;;;;3.17;2.35;;;;;;;18.86;71.49;102521.09;5092623;28;20048;-55
2022/08/10 02:07:04;;;;;;;5.55;2.65;;;;;;;18.81;71.73;102521.94;5092631;28;20483;-56
2022/08/10 02:09:35;;;;;;;3.95;2.60;;;;;;;18.82;71.42;102518.06;5091636;28;20039;-53
2022/08/10 02:12:06;;;;;;;4.88;2.42;;;;;;;18.82;71.68;102514.47;5074688;28;21587;-53
2022/08/10 02:14:57;;;;;;;6.25;2.75;;;;;;;18.89;71.28;102517.75;5072584;28;20036;-51
2022/08/10 02:17:45;;;;;;;5.38;2.80;;;;;;;18.88;71.26;102527.13;5092348;28;20417;-52
2022/08/10 02:20:36;;;;;;;5.60;2.72;;;;;;;18.86;71.48;102524.69;5080773;28;20045;-52
2022/08/10 02:23:08;;;;;;;5.00;2.80;;;;;;;18.69;71.96;102518.66;5069926;28;20123;-57
2022/08/10 02:25:37;;;;;;;3.47;2.60;;;;;;;18.68;72.75;102517.78;5083681;28;20037;-54
2022/08/10 02:28:12;;;;;;;4.20;2.80;;;;;;;18.61;72.71;102514.50;5074570;28;20046;-54
2022/08/10 02:31:04;;;;;;;3.70;2.53;;;;;;;18.62;72.76;102513.41;5090918;28;20042;-55
2022/08/10 02:33:34;;;;;;;3.38;2.67;;;;;;;18.64;72.86;102516.72;5075749;28;20070;-58
2022/08/10 02:36:06;;;;;;;4.60;2.85;;;;;;;18.65;72.74;102517.53;5091595;28;20036;-56
2022/08/10 02:38:41;;;;;;;5.35;3.20;;;;;;;18.52;73.27;102508.75;5095295;28;20048;-52
2022/08/10 02:41:44;;;;;;;4.78;2.88;;;;;;;18.49;73.61;102512.06;5074473;28;20046;-53
2022/08/10 02:44:32;;;;;;;4.13;2.83;;;;;;;18.56;73.20;102514.53;5083591;28;20379;-56
2022/08/10 02:47:30;;;;;;;5.28;2.75;;;;;;;18.49;73.58;102517.56;5095016;28;20028;-56
2022/08/10 02:50:24;;;;;;;4.13;2.70;;;;;;;18.47;73.76;102510.69;5096595;28;20058;-52
2022/08/10 02:53:16;;;;;;;5.80;2.88;;;;;;;18.43;73.75;102504.09;5078412;28;20043;-53
2022/08/10 02:56:43;;;;;;;4.75;2.63;;;;;;;18.40;74.01;102501.88;5083762;28;20433;-54
2022/08/10 02:59:59;;;;;;;3.90;2.63;;;;;;;18.36;74.46;102500.78;5080937;28;20051;-54
2022/08/10 03:02:48;;;;;;;3.05;2.60;;;;;;;18.34;74.44;102495.53;5093062;28;20051;-52
2022/08/10 03:05:20;;;;;;;4.32;2.30;;;;;;;18.39;74.54;102497.47;5088610;28;20040;-51
2022/08/10 03:07:59;;;;;;;7.28;2.92;;;;;;;18.44;74.04;102489.16;5075220;28;20032;-58
2022/08/10 03:10:37;;;;;;;6.55;3.00;;;;;;;18.34;74.69;102500.25;5077088;28;20547;-50
2022/08/10 03:13:09;;;;;;;4.55;2.60;;;;;;;18.33;74.58;102493.06;5077913;28;20043;-54
2022/08/10 03:15:38;;;;;;;5.78;2.85;;;;;;;18.30;74.78;102495.28;5078448;28;20046;-53
2022/08/10 03:18:06;;;;;;;3.28;2.80;;;;;;;18.28;74.72;102486.47;5092812;28;20040;-57
2022/08/10 03:20:39;;;;;;;4.38;3.10;;;;;;;18.24;75.06;102493.63;5078073;28;20050;-56
2022/08/10 03:23:14;;;;;;;7.05;2.88;;;;;;;18.20;75.23;102495.28;5077785;28;20032;-54
2022/08/10 03:25:43;;;;;;;5.68;2.60;;;;;;;18.16;75.40;102491.47;5077932;28;20067;-57
2022/08/10 03:28:23;;;;;;;7.38;2.95;;;;;;;18.09;75.74;102483.47;5076348;28;20052;-59
2022/08/10 03:30:51;;;;;;;4.13;2.67;;;;;;;17.95;76.96;102485.13;5094882;28;20048;-54
2022/08/10 03:33:21;;;;;;;2.97;2.50;;;;;;;17.98;76.75;102481.00;5077871;28;20051;-54
2022/08/10 03:35:49;;;;;;;4.60;3.00;;;;;;;17.97;77.00;102490.38;5096136;28;20093;-57
2022/08/10 03:38:39;;;;;;;5.70;2.80;;;;;;;17.91;77.17;102486.78;5095651;28;20036;-55
2022/08/10 03:41:10;;;;;;;4.15;3.00;;;;;;;17.73;78.37;102479.88;5077485;28;20047;-54
2022/08/10 03:43:47;;;;;;;;;;;;;;;17.78;78.42;102481.81;5079170;28;20044;-54
2022/08/10 03:46:20;;;;;;;3.88;2.35;;;;;;;17.77;78.54;102489.22;5075522;28;20309;-54
2022/08/10 03:48:51;;;;;;;4.82;3.00;;;;;;;17.85;78.39;102491.47;5077424;28;20036;-54
2022/08/10 03:51:19;;;;;;;4.65;2.92;;;;;;;17.96;77.62;102489.53;5095145;28;20047;-54
2022/08/10 03:53:48;;;;;;;6.70;3.55;;;;;;;17.91;77.90;102488.72;5077555;28;20044;-58
2022/08/10 03:56:34;;;;;;;;;;;;;;;17.91;78.05;102497.00;5095255;28;20048;-52
2022/08/10 03:59:03;;;;;;;4.35;2.72;;;;;;;17.87;78.15;102494.78;5060243;28;19924;-58
2022/08/10 04:01:31;;;;;;;3.50;2.80;;;;;;;17.76;78.78;102490.34;5076921;28;20506;-55
2022/08/10 04:04:20;;;;;;;4.70;3.00;;;;;;;17.78;78.77;102484.56;5094067;28;20384;-57
2022/08/10 04:06:56;;;;;;;5.32;2.70;;;;;;;17.68;79.00;102490.91;5077838;28;20048;-55
2022/08/10 04:09:29;;;;;;;3.80;2.83;;;;;;;17.65;79.55;102489.53;5077055;28;20093;-51
2022/08/10 04:12:17;;;;;;;4.20;2.90;;;;;;;17.69;79.53;102489.78;5080121;28;20508;-55
2022/08/10 04:14:45;;;;;;;5.78;2.90;;;;;;;17.68;79.52;102483.47;5095104;28;20164;-55
2022/08/10 04:17:23;;;;;;;5.05;3.22;;;;;;;17.66;79.16;102482.09;5084578;28;20048;-58
2022/08/10 04:20:30;;;;;;;4.00;2.92;;;;;;;17.73;79.26;102482.63;5082551;28;20036;-56
2022/08/10 04:23:05;;;;;;;8.20;2.97;;;;;;;17.65;79.59;102484.03;5094947;28;20044;-56
2022/08/10 04:25:34;;;;;;;5.93;2.97;;;;;;;17.61;80.21;102490.34;5063289;28;20097;-56
2022/08/10 04:28:02;;;;;;;5.18;3.25;;;;;;;17.72;79.57;102493.94;5076579;28;20052;-57
2022/08/10 04:30:31;;;;;;;5.85;2.90;;;;;;;17.76;79.44;102489.53;5093060;28;20074;-56
2022/08/10 04:32:59;;;;;;;4.82;2.65;;;;;;;17.70;79.32;102485.91;5076729;28;20039;-54
2022/08/10 04:35:28;;;;;;;4.35;2.97;;;;;;;17.63;80.02;102485.38;5092739;28;20041;-53
2022/08/10 04:37:57;;;;;;;3.40;2.95;;;;;;;17.64;79.92;102487.03;5056274;28;20045;-58
2022/08/10 04:40:25;;;;;;;4.90;2.97;;;;;;;17.59;79.85;102489.78;5089905;28;20051;-52
2022/08/10 04:42:59;;;;;;;4.82;3.10;;;;;;;17.63;80.45;102485.38;5094753;28;20044;-54
2022/08/10 04:45:31;;;;;;;7.35;3.13;;;;;;;17.63;80.04;102491.72;5077026;28;20105;-56
2022/08/10 04:48:20;;;;;;;4.88;3.00;;;;;;;17.61;80.36;102487.59;5079597;28;20036;-55
2022/08/10 04:51:13;;;;;;;3.55;2.53;;;;;;;17.68;80.08;102494.47;5093908;28;20040;-56
2022/08/10 04:53:46;;;;;;;4.38;3.00;;;;;;;17.75;79.78;102488.72;5076822;28;20051;-56
2022/08/10 04:56:38;;;;;;;7.07;2.92;;;;;;;17.74;79.88;102487.03;5093693;28;20044;-53
2022/08/10 04:59:08;;;;;;;6.28;3.15;;;;;;;17.75;79.94;102488.72;5094115;28;20047;-54
2022/08/10 05:01:37;;;;;;;3.55;2.83;;;;;;;17.80;79.77;102487.88;5093717;28;20044;-51
2022/08/10 05:04:25;;;;;;;6.30;3.50;;;;;;;17.82;79.49;102488.44;5093813;28;20044;-50
2022/08/10 05:07:07;;;;;;;7.63;3.35;;;;;;;17.81;79.76;102487.63;5092975;28;20158;-54
2022/08/10 05:09:40;;;;;;;5.80;3.63;;;;;;;17.70;80.35;102483.16;5076578;28;20498;-56
2022/08/10 05:12:28;;;;;;;5.57;3.40;;;;;;;17.75;80.30;102485.09;5078823;28;20368;-52
2022/08/10 05:14:56;;;;;;;7.13;3.90;;;;;;;17.72;80.59;102483.72;5093954;28;20050;-56
2022/08/10 05:17:24;;;;;;;6.32;3.50;;;;;;;17.57;81.30;102497.50;5093338;28;20048;-55
2022/08/10 05:19:52;;;;;;;6.00;3.80;;;;;;;17.53;81.74;102494.47;5093385;28;20036;-55
2022/08/10 05:22:40;;;;;;;6.07;3.58;;;;;;;17.58;82.23;102488.13;5092236;28;20036;-49
2022/08/10 05:25:14;;;;;;;6.85;3.60;;;;;;;17.70;81.28;102499.72;5093336;28;20048;-50
2022/08/10 05:27:42;;;;;;;4.07;3.03;;;;;;;17.75;81.21;102494.22;5075835;28;20048;-50
2022/08/10 05:30:14;;;;;;;4.85;3.15;;;;;;;17.83;80.79;102499.19;5074554;28;20048;-50
2022/08/10 05:32:42;;;;;;;5.88;3.42;;;;;;;17.82;80.88;102500.31;5075546;28;20040;-51
2022/08/10 05:35:27;;;;;;;5.80;3.97;;;;;;;17.87;80.83;102503.06;5077524;28;20521;-48
2022/08/10 05:38:16;;;;;;;6.65;3.83;;;;;;;17.91;80.69;102497.81;5093776;28;20036;-51
2022/08/10 05:40:44;;;;;;;5.93;4.00;;;;;;;17.98;80.38;102503.88;5092407;28;20040;-47
2022/08/10 05:43:18;;;;;;;7.03;4.20;;;;;;;18.04;80.10;102494.50;5075367;28;20046;-52
2022/08/10 05:45:48;;;;;;;5.88;3.60;;;;;;;18.04;80.17;102502.78;5091941;28;20065;-49
2022/08/10 05:48:37;;;;;;;6.45;4.20;;;;;;;18.04;80.38;102511.06;5093369;28;20038;-48
2022/08/10 05:51:25;;;;;;;7.45;3.80;;;;;;;18.07;80.27;102512.44;5088891;28;20044;-47
2022/08/10 05:53:53;;;;;;;7.68;4.13;;;;;;;18.12;80.20;102508.84;5087320;28;20529;-49
2022/08/10 05:56:34;;;;;;;7.38;4.00;;;;;;;18.13;80.07;102511.31;4738866;28;10000389;-53
2022/08/10 05:59:27;;;;;;;10.75;4.60;;;;;;;18.10;80.13;102512.69;5076980;28;20061;-50
2022/08/10 06:02:23;;;;;;;7.50;4.13;;;;;;;18.08;80.50;102505.78;5087816;28;20044;-51
2022/08/10 06:05:11;;;;;;;10.90;4.10;;;;;;;18.15;79.81;102505.53;5089487;28;20051;-51
2022/08/10 06:08:00;;;;;;;5.50;3.38;;;;;;;18.19;79.84;102501.94;5089634;28;20052;-48
2022/08/10 06:10:30;;;;;;;7.85;4.25;;;;;;;18.22;79.70;102508.81;5089695;28;20043;-49
2022/08/10 06:16:03;;;;;;;7.35;4.50;;;;;;;18.33;79.22;102504.09;5086767;28;20040;-49
2022/08/10 06:18:32;;;;;;;6.88;4.30;;;;;;;18.33;79.22;102504.09;5064143;28;20048;-53
2022/08/10 06:21:01;;;;;;;7.38;4.75;;;;;;;18.34;79.36;102503.00;5087710;28;20060;-55
2022/08/10 06:23:30;;;;;;;7.43;4.05;;;;;;;18.37;79.49;102499.69;5089737;28;20036;-51
2022/08/10 06:25:58;;;;;;;6.97;4.00;;;;;;;18.38;79.32;102498.59;5089031;28;20048;-54
2022/08/10 06:29:05;;;;;;;8.00;4.57;;;;;;;18.40;78.84;102504.63;5073560;28;20040;-54
2022/08/10 06:31:38;;;;;;;7.03;3.65;;;;;;;18.49;78.36;102502.94;5086709;28;20050;-52
2022/08/10 06:34:42;;;;;;;5.03;3.33;;;;;;;18.59;77.93;102502.09;5089950;28;20079;-55
2022/08/10 06:37:10;;;;;;;8.15;4.47;;;;;;;18.64;77.88;102508.44;5092623;28;20040;-55
2022/08/10 06:39:38;;;;;;;8.25;4.70;;;;;;;18.64;77.37;102504.84;5074792;28;20051;-53
2022/08/10 06:42:14;;;;;;;7.95;4.32;;;;;;;18.66;77.34;102503.44;5073748;28;20056;-54
2022/08/10 06:45:12;;;;;;;6.00;3.80;;;;;;;18.69;76.95;102502.91;5074058;28;20047;-54
2022/08/10 06:47:48;;;;;;;7.53;4.40;;;;;;;18.72;76.79;102502.31;5087809;28;20048;-55
2022/08/10 06:50:29;;;;;;;7.80;4.63;;;;;;;18.76;76.47;102508.16;5091328;28;20747;-56
2022/08/10 06:53:20;;;;;;;7.90;4.47;;;;;;;18.81;76.24;102507.28;5084456;28;20043;-56
2022/08/10 06:55:57;;;;;;;10.80;4.50;;;;;;;18.84;76.38;102503.97;5061204;28;20101;-59
2022/08/10 06:58:30;;;;;;;7.72;4.70;;;;;;;18.87;76.05;102507.00;5074912;28;20036;-57
2022/08/10 07:01:21;;;;;;;9.40;4.50;;;;;;;18.94;74.95;102503.94;5074616;28;20052;-56
2022/08/10 07:04:21;;;;;;;9.52;4.68;;;;;;;18.98;74.03;102507.78;5088518;28;20073;-55
2022/08/10 07:07:05;;;;;;;5.57;3.40;;;;;;;19.02;74.25;102511.59;5075835;28;20048;-54
2022/08/10 07:09:36;;;;;;;8.25;4.35;;;;;;;19.09;73.75;102519.59;5074767;28;20044;-56
2022/08/10 07:12:06;;;;;;;9.45;4.68;;;;;;;19.11;73.18;102509.91;5074357;28;20060;-50
2022/08/10 07:14:44;;;;;;;12.15;5.28;;;;;;;19.15;72.87;102515.69;5053583;28;20040;-55
2022/08/10 07:17:18;;;;;;;19.60;6.68;;;;;;;19.21;71.83;102525.59;5073935;28;20101;-56
2022/08/10 07:19:49;;;;;;;17.02;5.32;;;;;;;19.26;71.31;102521.97;5074443;28;20040;-52
2022/08/10 07:22:27;;;;;;;14.82;5.45;;;;;;;19.30;71.09;102517.53;5095784;28;20066;-55
2022/08/10 07:25:20;;;;;;;8.93;4.20;;;;;;;19.37;70.46;102523.59;5095197;28;20039;-54
2022/08/10 07:27:48;;;;;;;10.45;4.15;;;;;;;19.41;69.96;102512.75;5077675;28;20050;-55
2022/08/10 07:30:30;;;;;;;8.35;3.60;;;;;;;19.44;69.96;102510.28;5096705;28;20052;-56
2022/08/10 07:33:00;;;;;;;11.07;4.15;;;;;;;19.51;70.50;102512.72;5095077;28;20044;-50
2022/08/10 07:35:29;;;;;;;8.43;4.45;;;;;;;19.57;69.22;102512.38;5095256;28;20048;-51
2022/08/10 07:38:18;;;;;;;7.97;4.18;;;;;;;19.63;68.79;102515.94;5079229;28;20456;-52
2022/08/10 07:40:49;;;;;;;10.65;3.83;;;;;;;19.65;68.45;102524.78;5077984;28;20073;-50
2022/08/10 07:43:19;;;;;;;9.27;4.00;;;;;;;19.69;68.21;102523.09;5076383;28;20032;-55
2022/08/10 07:45:48;;;;;;;6.10;3.63;;;;;;;19.73;67.84;102518.66;5059816;28;20521;-54
2022/08/10 07:48:26;;;;;;;7.30;3.70;;;;;;;19.77;67.29;102518.88;5095318;28;20035;-52
2022/08/10 07:50:58;;;;;;;7.40;3.40;;;;;;;19.83;67.35;102520.50;5089357;28;20401;-52
2022/08/10 07:53:29;;;;;;;7.07;3.30;;;;;;;19.86;66.35;102519.94;5094735;28;20043;-53
2022/08/10 07:55:58;;;;;;;8.02;3.65;;;;;;;19.90;66.57;102515.47;5094548;28;20044;-52
2022/08/10 07:58:43;;;;;;;7.57;3.60;;;;;;;19.99;65.88;102524.81;5095207;28;20044;-49
2022/08/10 08:01:21;;;;;;;8.43;3.85;;;;;;;20.00;66.17;102520.91;5094774;28;20499;-50
2022/08/10 08:03:50;;;;;;;8.73;3.78;;;;;;;20.05;66.30;102519.22;5085687;28;20093;-54
2022/08/10 08:06:39;;;;;;;8.40;3.58;;;;;;;20.14;65.57;102517.47;5081241;28;20047;-55
2022/08/10 08:09:08;;;;;;;7.20;3.10;;;;;;;20.21;65.22;102517.97;5089511;28;20044;-53
2022/08/10 08:11:36;;;;;;;8.52;3.45;;;;;;;20.21;65.16;102527.09;5086837;28;20051;-51
2022/08/10 08:14:06;;;;;;;10.40;4.03;;;;;;;20.28;64.22;102515.69;5088098;28;20036;-52
2022/08/10 08:16:36;;;;;;;7.55;3.33;;;;;;;20.40;63.63;102518.03;5094371;28;20052;-51
2022/08/10 08:19:04;;;;;;;5.65;3.35;;;;;;;20.45;63.16;102522.72;5083675;28;20048;-56
2022/08/10 08:21:54;;;;;;;6.88;3.42;;;;;;;20.51;62.69;102518.75;5088964;28;20031;-54
2022/08/10 08:24:41;;;;;;;6.90;3.17;;;;;;;20.49;62.96;102515.44;5059291;28;20046;-52
2022/08/10 08:27:15;;;;;;;9.55;3.42;;;;;;;20.50;62.98;102522.66;5093093;28;20048;-51
2022/08/10 08:29:46;;;;;;;8.45;3.30;;;;;;;20.59;62.82;102512.59;5076618;28;20060;-53
2022/08/10 08:32:29;;;;;;;7.07;3.13;;;;;;;20.61;62.64;102521.41;5059746;28;20048;-50
2022/08/10 08:35:00;;;;;;;9.48;3.20;;;;;;;20.71;61.50;102514.94;5094245;28;20039;-53
2022/08/10 08:37:32;;;;;;;5.75;3.10;;;;;;;20.74;61.55;102512.41;5094100;28;20567;-56
2022/08/10 08:40:23;;;;;;;7.03;3.05;;;;;;;20.87;60.88;102521.13;5079275;28;20048;-51
2022/08/10 08:43:27;;;;;;;10.40;3.85;;;;;;;20.96;60.78;102513.81;5083435;28;20048;-54
2022/08/10 08:46:45;;;;;;;7.78;3.50;;;;;;;21.04;60.24;102518.66;5094115;28;20036;-54
2022/08/10 08:49:37;;;;;;;7.90;3.38;;;;;;;21.11;59.90;102516.34;5046550;28;20036;-53
2022/08/10 08:52:43;;;;;;;8.43;3.88;;;;;;;21.16;59.64;102519.06;5059203;28;20040;-53
2022/08/10 08:55:18;;;;;;;5.68;3.25;;;;;;;21.18;59.42;102518.75;5093519;28;20036;-52
2022/08/10 08:58:40;;;;;;;9.02;3.10;;;;;;;21.20;59.39;102509.03;5082695;28;20403;-57
2022/08/10 09:01:33;;;;;;;7.10;3.20;;;;;;;21.24;59.15;102510.09;5092701;28;20386;-55
2022/08/10 09:04:26;;;;;;;6.47;3.20;;;;;;;21.30;58.57;102505.28;5093713;28;20040;-51
2022/08/10 09:07:15;;;;;;;9.32;3.03;;;;;;;21.31;58.12;102508.88;5093531;28;20048;-56
2022/08/10 09:10:28;;;;;;;4.32;2.80;;;;;;;21.57;57.31;102507.38;5093044;28;20048;-53
2022/08/10 09:13:32;;;;;;;6.00;3.30;;;;;;;21.66;56.20;102500.03;5059863;28;20428;-51
2022/08/10 09:16:24;;;;;;;3.97;2.65;;;;;;;21.71;56.55;102501.88;5075549;28;20047;-56
2022/08/10 09:19:15;;;;;;;6.82;3.17;;;;;;;21.76;55.96;102512.09;5075631;28;20048;-53
2022/08/10 09:22:24;;;;;;;6.25;2.85;;;;;;;21.88;55.88;102506.88;5094334;28;20043;-50
2022/08/10 09:25:23;;;;;;;5.72;3.30;;;;;;;21.85;56.58;102502.75;5087553;28;20073;-54
2022/08/10 09:28:06;;;;;;;6.32;2.90;;;;;;;21.91;56.85;102492.38;5084352;28;20040;-51
2022/08/10 09:30:50;;;;;;;9.90;3.35;;;;;;;21.97;56.66;102491.19;5093199;28;20514;-55
2022/08/10 09:34:06;;;;;;;5.97;3.13;;;;;;;22.00;55.48;102486.97;5077939;28;20047;-55
2022/08/10 09:37:34;;;;;;;10.25;3.10;;;;;;;22.23;54.40;102480.47;5078749;28;20048;-53
2022/08/10 09:40:38;;;;;;;8.98;3.35;;;;;;;22.38;53.47;102482.13;5078401;28;20495;-53
2022/08/10 09:43:52;;;;;;;7.13;3.50;;;;;;;22.46;53.54;102473.06;5077360;28;20466;-53
2022/08/10 09:46:41;;;;;;;5.07;3.15;;;;;;;22.48;53.26;102470.78;5087736;28;20052;-57
2022/08/10 09:49:36;;;;;;;8.50;3.42;;;;;;;22.61;52.05;102469.16;5075315;28;20036;-55
2022/08/10 09:52:50;;;;;;;5.35;3.30;;;;;;;22.66;52.52;102471.00;5075214;28;20040;-51
2022/08/10 09:56:11;;;;;;;8.25;3.05;;;;;;;22.63;52.60;102472.44;5090138;28;20028;-51
2022/08/10 09:59:29;;;;;;;5.68;3.20;;;;;;;22.61;52.22;102468.31;5089113;28;20044;-50
2022/08/10 10:02:20;;;;;;;7.00;3.30;;;;;;;22.82;50.45;102463.97;5092667;28;20506;-52
2022/08/10 10:05:11;;;;;;;7.78;3.60;;;;;;;22.86;51.51;102462.22;5074570;28;20044;-55
2022/08/10 10:07:45;;;;;;;7.38;3.20;;;;;;;23.02;50.76;102461.88;5092719;28;20040;-57
2022/08/10 10:10:49;;;;;;;4.82;2.70;;;;;;;23.02;50.64;102450.78;5092641;28;20120;-57
2022/08/10 10:13:46;;;;;;;6.43;3.30;;;;;;;23.01;50.25;102449.94;5058172;28;20085;-58
2022/08/10 10:17:11;;;;;;;11.07;3.70;;;;;;;23.17;49.51;102442.91;5089464;28;20052;-57
2022/08/10 10:20:06;;;;;;;7.68;3.40;;;;;;;23.33;48.96;102435.03;5057244;28;20566;-56
2022/08/10 10:22:34;;;;;;;5.70;3.22;;;;;;;23.41;48.26;102443.75;5076111;28;20105;-56
2022/08/10 10:25:06;;;;;;;5.70;3.15;;;;;;;23.29;48.49;102434.00;5092305;28;20089;-56
2022/08/10 10:28:01;;;;;;;9.30;3.40;;;;;;;23.30;48.75;102438.41;5060378;28;20508;-57
2022/08/10 10:30:37;;;;;;;14.02;5.70;;;;;;;23.29;47.90;102428.44;5091518;28;20044;-51
2022/08/10 10:33:34;;;;;;;12.18;3.60;;;;;;;23.63;46.83;102427.03;5075270;28;20047;-59
2022/08/10 10:36:03;;;;;;;6.95;3.80;;;;;;;23.95;46.48;102427.88;5057279;28;20046;-51
2022/08/10 10:38:36;;;;;;;8.10;3.05;;;;;;;23.99;46.51;102417.75;5093415;28;20055;-54
2022/08/10 10:41:22;;;;;;;6.63;3.40;;;;;;;23.92;47.13;102423.78;5092484;28;20040;-56
2022/08/10 10:44:21;;;;;;;8.15;3.70;;;;;;;23.76;47.52;102409.47;5075292;28;20180;-56
2022/08/10 10:46:55;;;;;;;11.15;5.28;;;;;;;23.77;47.64;102413.88;5093936;28;20593;-56
2022/08/10 10:49:54;;;;;;;7.45;4.45;;;;;;;24.00;45.99;102414.66;4733486;28;10000208;-55
2022/08/10 10:52:24;;;;;;;9.65;3.85;;;;;;;24.12;45.61;102405.66;5087310;28;20085;-56
2022/08/10 10:55:10;;;;;;;22.58;8.98;;;;;;;23.93;47.35;102410.69;5091469;28;20464;-57
2022/08/10 10:57:48;;;;;;;17.55;7.25;;;;;;;23.77;46.79;102397.19;5094919;28;20085;-55
2022/08/10 11:00:47;;;;;;;13.20;4.43;;;;;;;23.91;46.15;102399.03;5093421;28;20040;-53
2022/08/10 11:03:45;;;;;;;9.77;3.55;;;;;;;24.23;44.15;102395.88;5074274;28;20105;-52
2022/08/10 11:06:24;;;;;;;10.27;3.60;;;;;;;24.25;45.51;102392.78;5092178;28;20032;-53
2022/08/10 11:09:32;;;;;;;8.93;3.50;;;;;;;24.26;45.89;102388.03;5076697;28;20048;-53
2022/08/10 11:12:33;;;;;;;12.10;5.00;;;;;;;24.23;45.81;102384.75;5092965;28;20044;-53
2022/08/10 11:15:12;;;;;;;12.00;5.20;;;;;;;24.22;46.17;102383.13;5080689;28;20039;-53
2022/08/10 11:17:52;;;;;;;;;;;;;;;24.11;46.38;102376.19;5092573;28;20044;-52
2022/08/10 11:20:32;;;;;;;7.57;3.40;;;;;;;24.33;44.54;102371.66;5072935;28;19924;-55
2022/08/10 11:23:22;;;;;;;8.23;3.50;;;;;;;24.61;44.08;102375.84;5075250;28;20051;-52
2022/08/10 11:26:02;;;;;;;6.57;3.42;;;;;;;24.77;43.10;102376.16;5080952;28;20054;-53
2022/08/10 11:29:00;;;;;;;6.05;3.60;;;;;;;24.66;43.36;102367.31;5091897;28;20048;-51
2022/08/10 11:31:42;;;;;;;5.80;3.60;;;;;;;24.57;43.45;102369.28;5073461;28;20112;-53
2022/08/10 11:34:23;;;;;;;10.48;4.40;;;;;;;24.39;43.66;102375.94;5046787;28;20056;-53
2022/08/10 11:37:34;;;;;;;7.78;3.63;;;;;;;24.32;44.11;102373.66;5092319;28;20039;-52
2022/08/10 11:40:42;;;;;;;9.65;4.18;;;;;;;24.36;43.43;102382.16;5073963;28;20046;-53
2022/08/10 11:43:20;;;;;;;10.52;4.35;;;;;;;24.33;42.95;102378.06;5070754;28;20130;-52
2022/08/10 11:45:59;;;;;;;11.13;4.30;;;;;;;24.37;43.42;102367.91;5086198;28;20037;-54
2022/08/10 11:49:02;;;;;;;8.85;4.13;;;;;;;24.40;42.39;102369.22;5068534;28;20048;-54
2022/08/10 11:51:36;;;;;;;8.38;3.80;;;;;;;24.55;42.59;102368.78;5081975;28;20049;-52
2022/08/10 11:54:25;;;;;;;8.70;4.22;;;;;;;24.66;43.39;102366.50;5074147;28;20036;-52
2022/08/10 11:56:55;;;;;;;9.48;3.83;;;;;;;24.75;42.33;102372.91;5092558;28;20032;-53
2022/08/10 12:02:54;;;;;;;8.25;3.40;;;;;;;24.94;41.63;102353.03;5091333;28;20485;-52
2022/08/10 12:05:28;;;;;;;8.13;3.63;;;;;;;25.06;40.77;102356.00;5073983;28;20044;-54
2022/08/10 12:08:20;;;;;;;8.65;4.10;;;;;;;24.93;42.10;102350.59;5077072;28;20043;-55
2022/08/10 12:11:10;;;;;;;8.20;3.67;;;;;;;24.83;41.98;102349.78;5089905;28;20040;-51
2022/08/10 12:13:48;;;;;;;7.82;3.42;;;;;;;25.01;40.71;102338.59;5073639;28;20051;-53
2022/08/10 12:16:40;;;;;;;7.43;3.35;;;;;;;25.11;40.68;102352.22;5063112;28;20051;-53
2022/08/10 12:19:20;;;;;;;5.82;3.00;;;;;;;25.16;40.86;102340.06;5073667;28;20108;-56
2022/08/10 12:22:10;;;;;;;8.50;3.90;;;;;;;25.09;41.20;102338.59;5084126;28;20052;-52
2022/08/10 12:24:54;;;;;;;6.78;3.30;;;;;;;25.07;41.10;102342.88;5073772;28;20056;-54
2022/08/10 12:28:03;;;;;;;5.50;3.20;;;;;;;25.11;40.87;102340.22;5060378;28;20077;-54
2022/08/10 12:30:35;;;;;;;7.25;2.97;;;;;;;25.11;39.77;102335.50;5008313;28;20058;-54
2022/08/10 12:33:09;;;;;;;7.43;3.28;;;;;;;25.14;38.33;102334.81;5001858;28;20044;-55
2022/08/10 12:36:06;;;;;;;5.18;3.10;;;;;;;25.22;39.99;102338.78;5031792;28;20056;-57
2022/08/10 12:38:58;;;;;;;7.53;3.42;;;;;;;25.47;40.07;102323.94;5088285;28;20047;-53
2022/08/10 12:41:30;;;;;;;6.03;3.30;;;;;;;25.46;39.92;102316.72;5091226;28;20482;-53
2022/08/10 12:44:20;;;;;;;5.70;2.75;;;;;;;25.62;39.42;102311.41;5090552;28;20043;-55
2022/08/10 12:47:06;;;;;;;;;;;;;;;25.63;39.32;102307.44;5091621;28;20036;-53
2022/08/10 12:50:10;;;;;;;10.20;3.40;;;;;;;25.86;38.68;102313.63;5079913;28;19924;-54
2022/08/10 12:53:05;;;;;;;5.90;2.85;;;;;;;25.97;38.43;102304.84;5060574;28;20048;-54
2022/08/10 12:55:36;;;;;;;6.27;2.90;;;;;;;25.96;38.54;102294.84;5077950;28;20142;-56
2022/08/10 12:58:06;;;;;;;6.65;2.95;;;;;;;25.91;38.88;102291.09;5077007;28;20294;-54
2022/08/10 13:00:55;;;;;;;5.68;2.92;;;;;;;25.93;38.13;102291.56;5079522;28;20043;-57
2022/08/10 13:03:46;;;;;;;4.90;2.90;;;;;;;25.92;36.49;102291.91;5072499;28;20090;-54
2022/08/10 13:06:36;;;;;;;6.28;3.20;;;;;;;25.76;37.42;102288.84;5078845;28;20078;-55
2022/08/10 13:09:13;;;;;;;9.40;3.20;;;;;;;25.76;37.38;102283.28;5093028;28;20100;-57